VTUO METAR and TAF | Updated Today

VTUO METAR

Buri Ram Airport

Observation time: 8:13 hr. ago

VTUO 051300Z 02004KT 9000 FEW035 BKN100 28/24 Q1010 NOSIG

Need help? Read our tutorial on how to read METARs or read the parsed version below.

Buri Ram Airport (VTUO) METAR

  • Weather conditions on Sun, 05 Feb 2023 13:00:00 +0000 (8:13 hr. ago):
  • Present conditions: Dry
  • Clouds: A few at 1067 meters; broken sky at 3048 meters
  • Visibility: 9000 meters
  • Wind: 20 degrees at 4 knots
  • Temperature: 28 celsius
  • Dew point: 24 celsius
  • Pressure: 1010 millibars
  • Remarks: None


Useful to know...

VTUO TAF

Buri Ram Airport

TAF VTUO 051700Z 0518/0618 12005KT 9000 FEW035 BECMG 0521/0523 4000 BR BECMG 0601/0603 9000 NSW
Observation time: 4:13 hr. ago
Need help? Read our tutorial on how to read TAFs or read the parsed version below.

Parsed version of TAF for Buri Ram Airport (VTUO)

  • From 05 February at 18:00 UTC, to day 06 of the month at 18:00 UTC
  • Clouds: A few at 1067 meters
  • Visibility: 9000 meters
  • Wind: 120 degrees at 5
  • Expected to arise soon, from 05 February at 21:00 UTC, to day 05 of the month at 23:00 UTC
  • Visibility: 4000 meters
  • Other: Mist
  • Expected to arise soon, from 06 February at 01:00 UTC, to day 06 of the month at 03:00 UTC
  • Clouds: No significant weather are observed
  • Visibility: 9000 meters